createdAt,value
2024-03-02T00:00:43.082Z,22.2
2024-03-02T00:01:45.541Z,16.4
2024-03-02T00:02:47.459Z,25.4
2024-03-02T00:03:49.638Z,16.1
2024-03-02T00:04:51.566Z,18.6
2024-03-02T00:05:53.593Z,16.8
2024-03-02T00:06:56.077Z,15
2024-03-02T00:07:58.266Z,20.7
2024-03-02T00:08:59.942Z,12.6
2024-03-02T00:10:02.034Z,16.4
2024-03-02T00:11:04.342Z,15
2024-03-02T00:12:06.088Z,14.9
2024-03-02T00:13:07.806Z,16.6
2024-03-02T00:14:09.300Z,18
2024-03-02T00:15:10.804Z,18.3
2024-03-02T00:16:12.332Z,14.7
2024-03-02T00:17:13.815Z,17.1
2024-03-02T00:18:16.494Z,14.5
2024-03-02T00:19:18.302Z,13.4
2024-03-02T00:20:19.897Z,14.1
2024-03-02T00:21:21.943Z,13.5
2024-03-02T00:22:23.734Z,14.4
2024-03-02T00:23:25.403Z,14.3
2024-03-02T00:24:27.150Z,16.4
2024-03-02T00:25:29.161Z,22.6
2024-03-02T00:26:30.706Z,16.6
2024-03-02T00:27:32.493Z,17.7
2024-03-02T00:28:34.270Z,14.8
2024-03-02T00:29:35.947Z,14.9
2024-03-02T00:30:37.957Z,17.9
2024-03-02T00:31:39.707Z,19
2024-03-02T00:32:41.614Z,13.9
2024-03-02T00:33:43.841Z,21.6
2024-03-02T00:34:45.899Z,19
2024-03-02T00:35:47.578Z,13.9
2024-03-02T00:36:49.870Z,13.4
2024-03-02T00:37:51.630Z,16.4
2024-03-02T00:38:53.310Z,14.2
2024-03-02T00:39:55.315Z,15.9
2024-03-02T00:40:57.121Z,14.8
2024-03-02T00:41:58.714Z,16.9
2024-03-02T00:43:00.222Z,17.1
2024-03-02T00:44:02.215Z,20.8
2024-03-02T00:45:03.733Z,12.6
2024-03-02T00:46:05.413Z,15.4
2024-03-02T00:47:07.158Z,15.3
2024-03-02T00:48:08.686Z,12.7
2024-03-02T00:49:10.287Z,19
2024-03-02T00:50:31.976Z,17.3
2024-03-02T00:51:34.118Z,15.6
2024-03-02T00:52:35.822Z,14.3
2024-03-02T00:53:37.472Z,12.9
2024-03-02T00:54:39.419Z,10
2024-03-02T00:55:41.104Z,14.6
2024-03-02T00:56:42.759Z,14.3
2024-03-02T00:57:44.959Z,20.9
2024-03-02T00:58:46.859Z,15.9
2024-03-02T00:59:48.445Z,14.6
2024-03-02T01:00:50.686Z,12.9
2024-03-02T01:01:53.353Z,13.4
2024-03-02T01:02:55.246Z,15.3
2024-03-02T01:03:57.860Z,15.1
2024-03-02T01:05:00.279Z,14.4
2024-03-02T01:06:01.982Z,18.1
2024-03-02T01:07:04.251Z,17.8
2024-03-02T01:08:06.249Z,17.1
2024-03-02T01:09:07.785Z,20.3
2024-03-02T01:10:09.411Z,11.8
2024-03-02T01:11:11.517Z,13
2024-03-02T01:12:13.764Z,12.5
2024-03-02T01:13:15.551Z,12.4
2024-03-02T01:14:17.157Z,13.1
2024-03-02T01:15:19.287Z,17.1
2024-03-02T01:16:21.248Z,12.7
2024-03-02T01:17:23.491Z,17.1
2024-03-02T01:18:25.651Z,16.3
2024-03-02T01:19:27.707Z,13.6
2024-03-02T01:20:29.390Z,20.6
2024-03-02T01:21:31.228Z,18.3
2024-03-02T01:22:33.114Z,17.4
2024-03-02T01:23:34.675Z,24.3
2024-03-02T01:24:36.859Z,17
2024-03-02T01:25:38.691Z,14.4
2024-03-02T01:26:40.291Z,16.2
2024-03-02T01:27:42.337Z,10.9
2024-03-02T01:28:44.276Z,21.9
2024-03-02T01:29:45.807Z,13.5
2024-03-02T01:30:47.854Z,14.2
2024-03-02T01:31:49.771Z,14.9
2024-03-02T01:32:52.033Z,17.6
2024-03-02T01:33:54.224Z,13.2
2024-03-02T01:34:56.111Z,17.5
2024-03-02T01:35:57.718Z,13.5
2024-03-02T01:36:59.912Z,12.9
2024-03-02T01:38:01.607Z,18.8
2024-03-02T01:39:03.311Z,10.9
2024-03-02T01:40:05.030Z,14.9
2024-03-02T01:41:06.561Z,21.1
2024-03-02T01:42:08.109Z,16.3
2024-03-02T01:43:09.678Z,12.5
2024-03-02T01:44:11.641Z,27.9
2024-03-02T01:45:14.230Z,16.1
2024-03-02T01:46:16.432Z,14.3
2024-03-02T01:47:18.133Z,12.3
2024-03-02T01:48:19.807Z,13.2
2024-03-02T01:49:21.719Z,20.3
2024-03-02T01:50:23.256Z,12.2
2024-03-02T01:51:25.255Z,16.7
2024-03-02T01:52:27.035Z,11.5
2024-03-02T01:53:28.766Z,12.6
2024-03-02T01:54:30.473Z,16.9
2024-03-02T01:55:33.024Z,12.8
2024-03-02T01:56:34.555Z,17.1
2024-03-02T01:57:36.828Z,15
2024-03-02T01:58:38.688Z,16.7
2024-03-02T01:59:40.383Z,11.1
2024-03-02T02:00:43.257Z,14.2
2024-03-02T02:01:45.616Z,17.8
2024-03-02T02:02:47.386Z,17.3
2024-03-02T02:03:49.399Z,13.2
2024-03-02T02:04:51.167Z,18.1
2024-03-02T02:05:52.673Z,17.5
2024-03-02T02:06:54.860Z,12
2024-03-02T02:07:56.575Z,17.2
2024-03-02T02:08:58.064Z,16.7
2024-03-02T02:10:00.011Z,14.9
2024-03-02T02:11:02.465Z,12.5
2024-03-02T02:12:04.070Z,18.8
2024-03-02T02:13:05.948Z,14.2
2024-03-02T02:14:07.527Z,16
2024-03-02T02:15:09.273Z,12.4
2024-03-02T02:16:11.121Z,16.7
2024-03-02T02:17:12.735Z,16.2
2024-03-02T02:18:14.901Z,27.9
2024-03-02T02:19:16.470Z,20.3
2024-03-02T02:20:18.044Z,16.3
2024-03-02T02:21:20.145Z,17.5
2024-03-02T02:22:22.072Z,21.4
2024-03-02T02:23:23.620Z,14.6
2024-03-02T02:24:25.465Z,20.9
2024-03-02T02:25:27.063Z,17.9
2024-03-02T02:26:29.541Z,18.6
2024-03-02T02:27:31.438Z,18.8
2024-03-02T02:28:33.316Z,16.5
2024-03-02T02:29:34.869Z,21.9
2024-03-02T02:30:37.205Z,16.9
2024-03-02T02:31:39.009Z,17.7
2024-03-02T02:32:40.917Z,19.5
2024-03-02T02:33:43.067Z,16.6
2024-03-02T02:34:45.049Z,18.1
2024-03-02T02:35:46.686Z,16.9
2024-03-02T02:36:48.508Z,14.2
2024-03-02T02:37:50.691Z,20.3
2024-03-02T02:38:52.372Z,17.5
2024-03-02T02:39:54.580Z,17.5
2024-03-02T02:40:56.296Z,21.4
2024-03-02T02:41:57.832Z,14.9
2024-03-02T02:42:59.944Z,20.2
2024-03-02T02:44:01.974Z,18.7
2024-03-02T02:45:03.780Z,22.4
2024-03-02T02:46:05.988Z,16
2024-03-02T02:47:07.920Z,17.1
2024-03-02T02:48:10.134Z,15.4
2024-03-02T02:49:12.014Z,14.6
2024-03-02T02:50:14.516Z,13.3
2024-03-02T02:51:16.582Z,14.2
2024-03-02T02:52:18.353Z,18.1
2024-03-02T02:53:20.046Z,18.3
2024-03-02T02:54:22.547Z,15.9
2024-03-02T02:55:24.287Z,17.9
2024-03-02T02:56:25.894Z,20.3
2024-03-02T02:57:27.867Z,16.2
2024-03-02T02:58:29.449Z,21.3
2024-03-02T02:59:30.991Z,18
2024-03-02T03:00:33.071Z,16.2
2024-03-02T03:01:35.909Z,17.9
2024-03-02T03:02:37.698Z,15.5
2024-03-02T03:03:39.653Z,18.8
2024-03-02T03:04:41.657Z,16
2024-03-02T03:05:43.457Z,16.6
2024-03-02T03:06:45.556Z,15.3
2024-03-02T03:07:47.702Z,16.1
2024-03-02T03:08:49.408Z,17.3
2024-03-02T03:09:51.750Z,15.4
2024-03-02T03:10:54.076Z,18.6
2024-03-02T03:11:55.888Z,16.5
2024-03-02T03:12:58.705Z,16.3
2024-03-02T03:14:00.535Z,14.8
2024-03-02T03:15:02.101Z,17
2024-03-02T03:16:04.314Z,20
2024-03-02T03:17:06.098Z,17.5
2024-03-02T03:18:08.182Z,17.1
2024-03-02T03:19:10.405Z,17.5
2024-03-02T03:20:12.877Z,15.7
2024-03-02T03:21:14.953Z,16.7
2024-03-02T03:22:16.609Z,20.8
2024-03-02T03:23:18.211Z,17.9
2024-03-02T03:24:20.271Z,20.5
2024-03-02T03:25:22.026Z,24.2
2024-03-02T03:26:23.544Z,17.8
2024-03-02T03:27:25.829Z,18.4
2024-03-02T03:28:27.519Z,16
2024-03-02T03:29:29.057Z,16.9
2024-03-02T03:30:30.911Z,15.8
2024-03-02T03:31:32.687Z,18.5
2024-03-02T03:32:34.593Z,14
2024-03-02T03:33:36.624Z,15.7
2024-03-02T03:34:38.741Z,16.5
2024-03-02T03:35:40.615Z,20.6
2024-03-02T03:36:42.547Z,18.4
2024-03-02T03:37:44.344Z,21.3
2024-03-02T03:38:45.881Z,17.2
2024-03-02T03:39:48.149Z,14.8
2024-03-02T03:40:49.932Z,21.5
2024-03-02T03:41:51.466Z,13.4
2024-03-02T03:42:53.581Z,19.3
2024-03-02T03:43:55.360Z,19.2
2024-03-02T03:44:56.895Z,15.6
2024-03-02T03:45:58.952Z,23.6
2024-03-02T03:47:00.655Z,18
2024-03-02T03:48:02.849Z,20.1
2024-03-02T03:49:04.387Z,18.7
2024-03-02T03:50:05.998Z,17
2024-03-02T03:51:07.761Z,15.9
2024-03-02T03:52:09.287Z,18.7
2024-03-02T03:53:10.985Z,20.6
2024-03-02T03:54:12.596Z,23.7
2024-03-02T03:55:14.286Z,14.8
2024-03-02T03:56:15.894Z,19.5
2024-03-02T03:57:17.839Z,20.6
2024-03-02T03:58:24.032Z,22.1
2024-03-02T03:59:25.761Z,18.1
2024-03-02T04:00:27.812Z,13.7
2024-03-02T04:01:30.170Z,17.8
2024-03-02T04:02:31.764Z,16.4
2024-03-02T04:03:33.836Z,18.5
2024-03-02T04:04:36.010Z,15.8
2024-03-02T04:05:37.744Z,15.4
2024-03-02T04:06:39.852Z,17.6
2024-03-02T04:07:42.733Z,17.6
2024-03-02T04:08:44.480Z,16.5
2024-03-02T04:09:46.528Z,15.8
2024-03-02T04:10:48.845Z,15.8
2024-03-02T04:11:50.703Z,17.7
2024-03-02T04:12:52.780Z,17.5
2024-03-02T04:14:00.244Z,25.1
2024-03-02T04:15:02.228Z,16.6
2024-03-02T04:16:04.261Z,17.6
2024-03-02T04:17:06.058Z,17.1
2024-03-02T04:18:08.516Z,17.1
2024-03-02T04:19:10.436Z,15.3
2024-03-02T04:20:12.016Z,16.6
2024-03-02T04:21:13.683Z,17.7
2024-03-02T04:22:26.916Z,14.8
2024-03-02T04:23:28.619Z,16.2
2024-03-02T04:24:30.555Z,15.7
2024-03-02T04:25:32.473Z,18.3
2024-03-02T04:26:34.795Z,17.9
2024-03-02T04:27:37.552Z,17.6
2024-03-02T04:28:39.541Z,15
2024-03-02T04:29:41.284Z,15.8
2024-03-02T04:30:43.300Z,15.4
2024-03-02T04:31:45.428Z,18.1
2024-03-02T04:32:47.840Z,20.8
2024-03-02T04:33:50.661Z,17.9
2024-03-02T04:34:52.471Z,18.6
2024-03-02T04:35:54.018Z,18.1
2024-03-02T04:36:56.252Z,15
2024-03-02T04:37:58.127Z,20
2024-03-02T04:38:59.686Z,18
2024-03-02T04:40:02.419Z,18.7
2024-03-02T04:41:03.933Z,18.7
2024-03-02T04:42:05.698Z,19.7
2024-03-02T04:43:08.096Z,24.4
2024-03-02T04:44:09.841Z,18
2024-03-02T04:45:11.401Z,18.4
2024-03-02T04:46:13.300Z,20
2024-03-02T04:47:15.006Z,24.8
2024-03-02T04:48:17.554Z,20.4
2024-03-02T04:49:20.334Z,20.9
2024-03-02T04:50:22.201Z,20
2024-03-02T04:51:24.475Z,19.8
2024-03-02T04:52:26.288Z,18.1
2024-03-02T04:53:27.834Z,16.5
2024-03-02T04:54:29.688Z,15.6
2024-03-02T04:55:31.800Z,17.3
2024-03-02T04:56:33.810Z,18.8
2024-03-02T04:57:35.784Z,24.9
2024-03-02T04:58:37.432Z,17.9
2024-03-02T04:59:38.996Z,21.9
2024-03-02T05:00:41.485Z,21
2024-03-02T05:01:43.922Z,19.4
2024-03-02T05:02:45.727Z,17.4
2024-03-02T05:03:47.666Z,16.7
2024-03-02T05:04:49.954Z,17.9
2024-03-02T05:05:52.194Z,20.3
2024-03-02T05:06:55.322Z,19.2
2024-03-02T05:07:57.218Z,27.6
2024-03-02T05:08:58.935Z,20.6
2024-03-02T05:10:01.195Z,19.3
2024-03-02T05:11:03.496Z,21.5
2024-03-02T05:12:05.553Z,24.4
2024-03-02T05:13:07.870Z,19.7
2024-03-02T05:14:09.682Z,21.5
2024-03-02T05:15:11.246Z,20.9
2024-03-02T05:16:12.814Z,18
2024-03-02T05:17:14.341Z,19.4
2024-03-02T05:18:16.655Z,25.6
2024-03-02T05:19:18.635Z,26.2
2024-03-02T05:20:20.278Z,20.1
2024-03-02T05:21:22.495Z,25.5
2024-03-02T05:22:24.084Z,23.2
2024-03-02T05:23:25.671Z,26.3
2024-03-02T05:24:27.641Z,18.3
2024-03-02T05:25:29.253Z,27.7
2024-03-02T05:26:31.520Z,19.2
2024-03-02T05:27:33.561Z,19.1
2024-03-02T05:28:35.223Z,17.6
2024-03-02T05:29:36.820Z,21.1
2024-03-02T05:30:38.657Z,17.3
2024-03-02T05:31:40.339Z,16.7
2024-03-02T05:32:42.194Z,23.6
2024-03-02T05:33:44.607Z,18.4
2024-03-02T05:34:47.477Z,23.7
2024-03-02T05:35:48.989Z,17.5
2024-03-02T05:36:51.417Z,19.8
2024-03-02T05:37:53.223Z,24.4
2024-03-02T05:38:54.878Z,15.5
2024-03-02T05:39:57.099Z,16.9
2024-03-02T05:40:59.025Z,20.3
2024-03-02T05:42:00.891Z,22.9
2024-03-02T05:43:02.924Z,19.4
2024-03-02T05:44:04.848Z,16.4
2024-03-02T05:45:06.588Z,22.5
2024-03-02T05:46:08.221Z,20.1
2024-03-02T05:47:09.775Z,19.3
2024-03-02T05:48:12.214Z,21.3
2024-03-02T05:49:14.066Z,21.8
2024-03-02T05:50:15.824Z,16
2024-03-02T05:51:17.577Z,18.4
2024-03-02T05:52:19.299Z,17.9
2024-03-02T05:53:20.925Z,19.6
2024-03-02T05:54:23.040Z,17.8
2024-03-02T05:55:24.821Z,23.6
2024-03-02T05:56:26.330Z,21.3
2024-03-02T05:57:28.285Z,20.5
2024-03-02T05:58:29.825Z,28.3
2024-03-02T05:59:31.414Z,31.4
2024-03-02T06:00:33.945Z,20.6
2024-03-02T06:01:36.530Z,20.5
2024-03-02T06:02:40.937Z,19.7
2024-03-02T06:03:43.053Z,29.3
2024-03-02T06:04:45.215Z,37.9
2024-03-02T06:05:46.722Z,25.3
2024-03-02T06:06:49.069Z,35
2024-03-02T06:07:50.964Z,59.8
2024-03-02T06:08:52.464Z,17.2
2024-03-02T06:09:54.611Z,15.5
2024-03-02T06:10:56.831Z,26
2024-03-02T06:11:58.536Z,15.7
2024-03-02T06:13:01.276Z,29.7
2024-03-02T06:14:03.179Z,16.3
2024-03-02T06:15:04.759Z,27.1
2024-03-02T06:16:06.831Z,35.1
2024-03-02T06:17:08.624Z,25.4
2024-03-02T06:18:10.810Z,16.1
2024-03-02T06:19:12.376Z,16
2024-03-02T06:20:13.906Z,35.1
2024-03-02T06:21:15.619Z,68.3
2024-03-02T06:22:17.173Z,29.7
2024-03-02T06:23:18.749Z,33.2
2024-03-02T06:24:20.542Z,48.2
2024-03-02T06:25:22.309Z,130.3
2024-03-02T06:26:27.078Z,83.5
2024-03-02T06:27:29.209Z,42.1
2024-03-02T06:28:31.069Z,16.5
2024-03-02T06:29:32.651Z,20.6
2024-03-02T06:30:34.679Z,23.1
2024-03-02T06:31:36.633Z,52.5
2024-03-02T06:32:38.335Z,24.8
2024-03-02T06:33:40.724Z,17
2024-03-02T06:34:42.574Z,27.7
2024-03-02T06:35:44.143Z,34.5
2024-03-02T06:36:46.178Z,29.8
2024-03-02T06:37:47.924Z,21.3
2024-03-02T06:38:49.800Z,17.4
2024-03-02T06:39:51.862Z,43.4
2024-03-02T06:40:53.648Z,19.7
2024-03-02T06:41:55.204Z,22.8
2024-03-02T06:42:57.934Z,21.9
2024-03-02T06:43:59.841Z,23.9
2024-03-02T06:45:01.457Z,17.3
2024-03-02T06:46:03.571Z,44.4
2024-03-02T06:47:05.224Z,29.9
2024-03-02T06:48:07.436Z,18.6
2024-03-02T06:49:09.267Z,27
2024-03-02T06:50:10.908Z,18.4
2024-03-02T06:51:12.617Z,27.9
2024-03-02T06:52:14.143Z,25.2
2024-03-02T06:53:15.684Z,49
2024-03-02T06:54:17.916Z,26.8
2024-03-02T06:55:19.504Z,19.1
2024-03-02T06:56:21.192Z,28.7
2024-03-02T06:57:23.667Z,23.5
2024-03-02T06:58:25.487Z,24
2024-03-02T06:59:27.044Z,40.2
2024-03-02T07:00:29.134Z,28.5
2024-03-02T07:01:30.964Z,27.3
2024-03-02T07:02:32.591Z,45
2024-03-02T07:03:35.004Z,59.1
2024-03-02T07:04:37.146Z,44.1
2024-03-02T07:05:38.834Z,23.8
2024-03-02T07:06:40.952Z,23.2
2024-03-02T07:07:42.838Z,21.1
2024-03-02T07:08:44.417Z,21.8
2024-03-02T07:09:46.828Z,22.6
2024-03-02T07:10:48.957Z,27.6
2024-03-02T07:11:53.359Z,17.8
2024-03-02T07:12:55.632Z,22.6
2024-03-02T07:13:57.546Z,30.8
2024-03-02T07:14:59.145Z,30.8
2024-03-02T07:16:01.706Z,19
2024-03-02T07:17:03.500Z,18.2
2024-03-02T07:18:05.148Z,20.7
2024-03-02T07:19:08.020Z,24.1
2024-03-02T07:20:10.307Z,21.8
2024-03-02T07:21:11.825Z,22.2
2024-03-02T07:22:13.555Z,17.7
2024-03-02T07:23:15.146Z,19
2024-03-02T07:24:16.773Z,26.9
2024-03-02T07:27:51.864Z,23.8
2024-03-02T07:28:53.672Z,21.8
2024-03-02T07:29:55.205Z,20
2024-03-02T07:30:57.254Z,21.9
2024-03-02T07:31:58.972Z,18.4
2024-03-02T07:33:01.027Z,18.8
2024-03-02T07:34:03.737Z,19.7
2024-03-02T07:35:05.634Z,18.5
2024-03-02T07:36:07.281Z,16.4
2024-03-02T07:37:08.913Z,20.7
2024-03-02T07:38:10.516Z,15.8
2024-03-02T07:39:12.127Z,15.2
2024-03-02T07:40:13.661Z,15.7
2024-03-02T07:41:15.562Z,32.5
2024-03-02T07:42:17.112Z,19.9
2024-03-02T07:43:18.744Z,14.6
2024-03-02T07:44:20.400Z,37.6
2024-03-02T07:45:22.217Z,16.8
2024-03-02T07:46:23.979Z,16.3
2024-03-02T07:47:25.897Z,13.3
2024-03-02T07:48:28.072Z,16.6
2024-03-02T07:49:29.802Z,14
2024-03-02T07:50:31.392Z,14.3
2024-03-02T07:51:33.267Z,10.9
2024-03-02T07:52:34.853Z,15
2024-03-02T07:53:36.447Z,16.9
2024-03-02T07:54:38.366Z,11.2
2024-03-02T07:55:40.237Z,12.3
2024-03-02T07:56:42.055Z,14.8
2024-03-02T07:57:43.841Z,15.9
2024-03-02T07:58:45.678Z,15.8
2024-03-02T07:59:47.241Z,11.2
2024-03-02T08:00:55.799Z,15.1
2024-03-02T08:01:58.190Z,8.9
2024-03-02T08:02:59.852Z,14.2
2024-03-02T08:04:02.495Z,14.2
2024-03-02T08:05:04.322Z,15.4
2024-03-02T08:06:06.075Z,16.6
2024-03-02T08:07:08.245Z,14.4
2024-03-02T08:08:09.844Z,18.7
2024-03-02T08:09:11.508Z,20.2
2024-03-02T08:10:13.507Z,18.6
2024-03-02T08:11:15.988Z,17.6
2024-03-02T08:12:18.348Z,22.7
2024-03-02T08:13:20.108Z,15.3
2024-03-02T08:14:21.621Z,17.9
2024-03-02T08:15:23.495Z,18.8
2024-03-02T08:16:25.561Z,15.1
2024-03-02T08:17:27.516Z,16.2
2024-03-02T08:18:29.799Z,16.4
2024-03-02T08:19:31.699Z,18.9
2024-03-02T08:20:33.567Z,26.8
2024-03-02T08:21:35.788Z,16.9
2024-03-02T08:22:37.408Z,17.5
2024-03-02T08:23:45.436Z,14.4
2024-03-02T08:24:47.403Z,16.1
2024-03-02T08:25:49.229Z,16
2024-03-02T08:26:50.853Z,18.1
2024-03-02T08:27:53.397Z,19.4
2024-03-02T08:28:55.150Z,18.5
2024-03-02T08:29:56.676Z,17
2024-03-02T08:30:59.850Z,20.2
2024-03-02T08:32:01.649Z,20.7
2024-03-02T08:33:03.758Z,21
2024-03-02T08:34:06.198Z,19
2024-03-02T08:35:08.185Z,18.6
2024-03-02T08:36:09.857Z,16.4
2024-03-02T08:37:11.465Z,17.5
2024-03-02T08:38:13.172Z,18.9
2024-03-02T08:39:14.795Z,19.6
2024-03-02T08:40:20.574Z,15.1
2024-03-02T08:41:22.072Z,20.4
2024-03-02T08:42:24.254Z,31.4
2024-03-02T08:43:26.013Z,16.7
2024-03-02T08:44:27.725Z,15.2
2024-03-02T08:45:29.752Z,15.9
2024-03-02T08:46:31.405Z,22.5
2024-03-02T08:47:33.504Z,21.5
2024-03-02T08:48:36.750Z,17.2
2024-03-02T08:49:38.534Z,21.1
2024-03-02T08:50:40.196Z,17.6
2024-03-02T08:51:42.172Z,15.1
2024-03-02T08:52:43.960Z,18.5
2024-03-02T08:53:45.756Z,21.1
2024-03-02T08:54:47.822Z,19.3
2024-03-02T08:55:49.577Z,18.1
2024-03-02T08:56:51.097Z,19
2024-03-02T08:57:53.188Z,22.2
2024-03-02T08:58:55.012Z,19.3
2024-03-02T08:59:56.610Z,17.2
2024-03-02T09:00:58.818Z,21.1
2024-03-02T09:02:01.561Z,19.4
2024-03-02T09:03:03.176Z,17.6
2024-03-02T09:04:05.508Z,18.1
2024-03-02T09:05:07.636Z,20.2
2024-03-02T09:06:09.581Z,18
2024-03-02T09:07:11.266Z,21.4
2024-03-02T09:08:12.859Z,18.5
2024-03-02T09:09:14.458Z,17.4
2024-03-02T09:10:15.994Z,19.5
2024-03-02T09:11:17.546Z,20.7
2024-03-02T09:12:19.547Z,19.6
2024-03-02T09:13:21.340Z,20.3
2024-03-02T09:14:23.043Z,16.1
2024-03-02T09:15:25.178Z,16.2
2024-03-02T09:16:27.057Z,22.6
2024-03-02T09:17:28.836Z,15.6
2024-03-02T09:18:30.918Z,20.1
2024-03-02T09:19:32.679Z,17
2024-03-02T09:20:34.205Z,18.2
2024-03-02T09:21:36.243Z,15
2024-03-02T09:22:38.073Z,18.4
2024-03-02T09:23:39.625Z,13.2
2024-03-02T09:24:41.757Z,18.2
2024-03-02T09:25:43.600Z,18
2024-03-02T09:26:45.457Z,15.2
2024-03-02T09:27:47.743Z,20.9
2024-03-02T09:28:49.511Z,22.1
2024-03-02T09:29:51.212Z,10.8
2024-03-02T09:30:53.328Z,18.8
2024-03-02T09:34:20.876Z,16
2024-03-02T09:37:26.791Z,22.5
2024-03-02T09:38:28.629Z,16.2
2024-03-02T09:39:30.364Z,13.9
2024-03-02T09:41:33.583Z,17.3
2024-03-02T09:42:35.668Z,18.5
2024-03-02T09:43:37.445Z,12.3
2024-03-02T09:44:39.021Z,17.7
2024-03-02T09:45:41.259Z,13.9
2024-03-02T09:46:43.116Z,14.9
2024-03-02T09:47:44.889Z,21.6
2024-03-02T09:48:47.076Z,14.4
2024-03-02T09:49:48.897Z,15.1
2024-03-02T09:50:50.413Z,18.3
2024-03-02T09:51:52.868Z,12.8
2024-03-02T09:53:30.429Z,21.5
2024-03-02T09:54:32.381Z,17
2024-03-02T09:55:34.162Z,14.1
2024-03-02T09:56:35.649Z,17.2
2024-03-02T09:57:42.644Z,14.4
2024-03-02T09:58:44.470Z,13.3
2024-03-02T09:59:46.253Z,14.8
2024-03-02T10:00:48.961Z,17.7
2024-03-02T10:01:51.186Z,15.1
2024-03-02T10:02:52.698Z,19.4
2024-03-02T10:03:54.461Z,13.7
2024-03-02T10:04:56.168Z,16.2
2024-03-02T10:05:57.903Z,12.7
2024-03-02T10:06:59.951Z,18
2024-03-02T10:08:01.818Z,20.7
2024-03-02T10:09:03.336Z,14.1
2024-03-02T10:10:05.255Z,12.1
2024-03-02T10:11:07.228Z,13.4
2024-03-02T10:12:09.036Z,15.5
2024-03-02T10:13:10.605Z,19.5
2024-03-02T10:14:12.310Z,10.3
2024-03-02T10:15:13.977Z,13.6
2024-03-02T10:16:16.210Z,15.7
2024-03-02T10:17:17.784Z,22.8
2024-03-02T10:18:19.384Z,13
2024-03-02T10:19:21.209Z,11.2
2024-03-02T10:20:22.827Z,12.3
2024-03-02T10:21:24.901Z,10.2
2024-03-02T10:22:26.506Z,12.2
2024-03-02T10:23:28.105Z,14.1
2024-03-02T10:24:29.842Z,11
2024-03-02T10:25:59.311Z,10
2024-03-02T10:27:01.163Z,9.9
2024-03-02T10:28:03.522Z,9
2024-03-02T10:29:05.573Z,13.9
2024-03-02T10:30:07.622Z,11.5
2024-03-02T10:31:12.267Z,11
2024-03-02T10:32:14.314Z,12.1
2024-03-02T10:33:16.047Z,12.5
2024-03-02T10:34:17.949Z,14.2
2024-03-02T10:35:19.527Z,10.7
2024-03-02T10:36:21.594Z,9.6
2024-03-02T10:37:23.533Z,9.3
2024-03-02T10:38:25.278Z,12.5
2024-03-02T10:39:27.215Z,9.1
2024-03-02T10:40:28.887Z,11.2
2024-03-02T10:41:30.531Z,10.7
2024-03-02T10:42:32.468Z,9.8
2024-03-02T10:43:34.173Z,11.1
2024-03-02T10:44:36.884Z,11.3
2024-03-02T10:45:38.741Z,10.4
2024-03-02T10:46:40.545Z,14.5
2024-03-02T10:47:42.692Z,10.9
2024-03-02T10:48:44.532Z,12.3
2024-03-02T10:49:46.324Z,14
2024-03-02T10:50:48.102Z,13.1
2024-03-02T10:51:50.280Z,17.2
2024-03-02T10:52:51.986Z,12.9
2024-03-02T10:53:53.541Z,12.5
2024-03-02T10:54:55.694Z,11
2024-03-02T10:56:04.384Z,12.1
2024-03-02T10:57:06.191Z,10.5
2024-03-02T10:58:09.016Z,13.5
2024-03-02T10:59:10.844Z,13.6
2024-03-02T11:00:12.421Z,10.7
2024-03-02T11:01:14.725Z,9.9
2024-03-02T11:02:16.683Z,14.5
2024-03-02T11:03:18.443Z,12.3
2024-03-02T11:04:20.531Z,10.4
2024-03-02T11:05:22.109Z,15.3
2024-03-02T11:06:24.168Z,11.9
2024-03-02T11:07:26.077Z,15.4
2024-03-02T11:08:28.045Z,13.3
2024-03-02T11:09:29.999Z,13.4
2024-03-02T11:10:31.621Z,16.8
2024-03-02T11:11:33.603Z,10.3
2024-03-02T11:12:35.553Z,13.5
2024-03-02T11:13:43.108Z,13.6
2024-03-02T11:14:44.765Z,11.9
2024-03-02T11:15:47.027Z,14.3
2024-03-02T11:16:48.806Z,11
2024-03-02T11:17:50.532Z,11.1
2024-03-02T11:18:53.246Z,13
2024-03-02T11:19:55.153Z,9.4
2024-03-02T11:20:57.205Z,12
2024-03-02T11:21:59.862Z,10.3
2024-03-02T11:23:01.916Z,8.8
2024-03-02T11:24:03.448Z,10
2024-03-02T11:25:05.462Z,9.8
2024-03-02T11:26:07.677Z,8.7
2024-03-02T11:27:09.438Z,8.3
2024-03-02T11:28:12.678Z,8.4
2024-03-02T11:29:14.466Z,9.8
2024-03-02T11:30:16.083Z,8.6
2024-03-02T11:31:17.799Z,12.3
2024-03-02T11:32:19.627Z,10.9
2024-03-02T11:33:22.153Z,13.5
2024-03-02T11:34:23.972Z,8.2
2024-03-02T11:35:25.553Z,9.6
2024-03-02T11:36:27.297Z,9.3
2024-03-02T11:37:28.941Z,6.9
2024-03-02T11:38:30.826Z,10
2024-03-02T11:39:33.305Z,7
2024-03-02T11:40:35.309Z,7.3
2024-03-02T11:41:37.053Z,5.9
2024-03-02T11:42:38.831Z,7.2
2024-03-02T11:43:40.780Z,8.3
2024-03-02T11:44:42.868Z,8.9
2024-03-02T11:45:45.713Z,6.7
2024-03-02T11:46:48.269Z,9.3
2024-03-02T11:47:50.334Z,5.8
2024-03-02T11:48:52.612Z,5.5
2024-03-02T11:49:54.451Z,5.4
2024-03-02T11:50:56.144Z,5.5
2024-03-02T11:51:58.291Z,6.9
2024-03-02T11:53:00.037Z,7.5
2024-03-02T11:54:01.684Z,7.8
2024-03-02T11:55:04.309Z,8.1
2024-03-02T11:56:06.450Z,7
2024-03-02T11:57:08.284Z,5.7
2024-03-02T11:58:10.592Z,5
2024-03-02T11:59:12.551Z,7
2024-03-02T12:00:14.090Z,7.5
2024-03-02T12:01:16.350Z,6.1
2024-03-02T12:02:18.196Z,5.9
2024-03-02T12:03:20.130Z,5.7
2024-03-02T12:04:23.528Z,6.2
2024-03-02T12:05:25.256Z,7.7
2024-03-02T12:06:27.276Z,9.3
2024-03-02T12:07:29.324Z,5.7
2024-03-02T12:08:31.091Z,5.3
2024-03-02T12:09:33.540Z,9.8
2024-03-02T12:10:35.634Z,8.5
2024-03-02T12:11:38.334Z,4.4
2024-03-02T12:12:40.564Z,5.3
2024-03-02T12:13:43.064Z,11.3
2024-03-02T12:14:44.733Z,7.9
2024-03-02T12:15:46.712Z,7.5
2024-03-02T12:16:48.563Z,7.1
2024-03-02T12:17:50.559Z,6.4
2024-03-02T12:18:52.611Z,5.2
2024-03-02T12:19:54.374Z,5.2
2024-03-02T12:20:55.992Z,5.7
2024-03-02T12:21:58.167Z,9
2024-03-02T12:23:00.112Z,6.2
2024-03-02T12:24:01.721Z,4.8
2024-03-02T12:25:04.062Z,10.2
2024-03-02T12:26:06.307Z,7
2024-03-02T12:27:08.026Z,15.6
2024-03-02T12:28:10.277Z,12.1
2024-03-02T12:29:12.145Z,6.7
2024-03-02T12:30:13.704Z,5
2024-03-02T12:31:15.629Z,8
2024-03-02T12:32:17.387Z,7.1
2024-03-02T12:33:19.834Z,7.4
2024-03-02T12:34:22.417Z,4.5
2024-03-02T12:35:24.309Z,11.9
2024-03-02T12:36:26.402Z,6.5
2024-03-02T12:37:28.253Z,7.8
2024-03-02T12:38:29.796Z,4.9
2024-03-02T12:39:31.513Z,3.8
2024-03-02T12:40:33.369Z,3.8
2024-03-02T12:41:35.080Z,5.4
2024-03-02T12:42:37.375Z,5.3
2024-03-02T12:43:39.079Z,5.4
2024-03-02T12:44:40.620Z,7.2
2024-03-02T12:45:42.972Z,5.1
2024-03-02T12:46:44.664Z,6
2024-03-02T12:47:47.275Z,4.7
2024-03-02T12:48:49.757Z,4.7
2024-03-02T12:49:51.540Z,5.2
2024-03-02T12:50:53.259Z,5.6
2024-03-02T12:51:55.812Z,7.7
2024-03-02T12:52:58.214Z,5.1
2024-03-02T12:53:59.835Z,4.9
2024-03-02T12:55:02.624Z,7.8
2024-03-02T12:56:05.038Z,6.8
2024-03-02T12:57:07.011Z,5.6
2024-03-02T12:58:09.138Z,5.7
2024-03-02T12:59:10.956Z,6.5
2024-03-02T13:00:12.560Z,5.4
2024-03-02T13:01:14.951Z,5.3
2024-03-02T13:02:17.161Z,5.1
2024-03-02T13:03:18.694Z,5.2
2024-03-02T13:04:20.237Z,7.1
2024-03-02T13:05:22.449Z,7.3
2024-03-02T13:06:24.267Z,7
2024-03-02T13:07:26.204Z,11.7
2024-03-02T13:08:27.743Z,7.8
2024-03-02T13:09:30.201Z,28.4
2024-03-02T13:10:32.188Z,11.2
2024-03-02T13:11:33.742Z,7.4
2024-03-02T13:12:35.766Z,8
2024-03-02T13:13:37.689Z,8
2024-03-02T13:14:39.425Z,10.8
2024-03-02T13:15:41.641Z,10.2
2024-03-02T13:16:49.145Z,7.3
2024-03-02T13:17:51.231Z,9.8
2024-03-02T13:18:53.195Z,8.2
2024-03-02T13:19:55.202Z,9.2
2024-03-02T13:20:56.879Z,5.8
2024-03-02T13:21:58.874Z,7.9
2024-03-02T13:23:00.693Z,9.2
2024-03-02T13:24:02.250Z,10.2
2024-03-02T13:25:05.340Z,7.5
2024-03-02T13:26:07.586Z,6.4
2024-03-02T13:27:09.219Z,6.4
2024-03-02T13:28:11.714Z,11.5
2024-03-02T13:29:13.435Z,6.1
2024-03-02T13:30:15.179Z,5.6
2024-03-02T13:31:16.697Z,10.1
2024-03-02T13:32:18.393Z,11.9
2024-03-02T13:33:20.568Z,8.7
2024-03-02T13:34:22.360Z,7.1
2024-03-02T13:35:23.877Z,7.7
2024-03-02T13:36:25.989Z,8.7
2024-03-02T13:37:27.893Z,12.5
2024-03-02T13:38:29.919Z,6.4
2024-03-02T13:39:31.847Z,7.4
2024-03-02T13:40:33.547Z,8.6
2024-03-02T13:41:35.108Z,7.4
2024-03-02T13:42:37.077Z,10.1
2024-03-02T13:43:38.934Z,6.1
2024-03-02T13:44:40.503Z,5.4
2024-03-02T13:45:42.577Z,7.5
2024-03-02T13:46:44.190Z,9.3
2024-03-02T13:47:46.234Z,11.8
2024-03-02T13:48:48.604Z,10.3
2024-03-02T13:49:51.174Z,15.4
2024-03-02T13:50:52.847Z,8.6
2024-03-02T13:51:54.980Z,10.5
2024-03-02T13:52:56.776Z,9.9
2024-03-02T13:53:58.386Z,8
2024-03-02T13:55:00.456Z,7.3
2024-03-02T13:56:03.001Z,8.6
2024-03-02T13:57:04.832Z,11.7
2024-03-02T13:58:07.077Z,11.7
2024-03-02T13:59:09.195Z,11.5
2024-03-02T14:00:10.722Z,8.7
2024-03-02T14:01:13.086Z,9
2024-03-02T14:02:15.003Z,7.4
2024-03-02T14:03:16.634Z,8.8
2024-03-02T14:04:18.710Z,12
2024-03-02T14:05:20.382Z,9.3